Time;durP1;ratioP1;P1;durP2;ratioP2;P2;SDS_P1;SDS_P2;PMS_P1;PMS_P2;Temp;Humidity;BMP_temperature;BMP_pressure;BME280_temperature;BME280_humidity;BME280_pressure;Samples;Min_cycle;Max_cycle;Signal;HPM_P1;HPM_P2
2021/10/23 05:46:16;;;;;;;2.03;0.50;;;16.10;67.10;;;;;;4769300;30;20044;-71
2021/10/23 05:49:55;;;;;;;5.50;1.00;;;16.10;67.00;;;;;;4990694;24;20120;-72
2021/10/23 05:52:21;;;;;;;4.38;1.00;;;16.10;66.40;;;;;;4774440;30;20177;-72
2021/10/23 05:54:47;;;;;;;3.47;1.23;;;16.10;66.00;;;;;;4774887;30;20138;-73
2021/10/23 05:57:12;;;;;;;7.55;1.10;;;16.10;65.70;;;;;;4759337;30;20547;-72
2021/10/23 05:59:46;;;;;;;4.53;1.20;;;16.10;65.50;;;;;;4759092;30;20060;-73
2021/10/23 06:02:25;;;;;;;4.38;1.40;;;16.10;65.30;;;;;;4759946;30;20059;-74
2021/10/23 06:04:56;;;;;;;6.78;1.25;;;16.10;65.50;;;;;;4774581;30;20150;-72
2021/10/23 06:07:25;;;;;;;8.35;1.92;;;16.10;63.70;;;;;;4774511;30;20051;-73
2021/10/23 06:09:51;;;;;;;8.40;1.65;;;16.00;63.30;;;;;;4774536;30;20201;-74
2021/10/23 06:12:17;;;;;;;6.70;1.50;;;16.00;64.10;;;;;;4773885;30;20058;-82
2021/10/23 06:14:44;;;;;;;7.88;1.65;;;15.90;66.70;;;;;;4752641;30;20051;-77
2021/10/23 06:17:10;;;;;;;11.10;2.13;;;16.00;67.30;;;;;;4792384;30;20212;-73
2021/10/23 06:19:41;;;;;;;13.43;1.90;;;16.00;66.80;;;;;;4776236;30;20055;-70
2021/10/23 06:22:07;;;;;;;8.95;1.17;;;16.20;66.70;;;;;;4774584;30;20052;-73
2021/10/23 06:24:33;;;;;;;9.43;1.70;;;16.30;66.70;;;;;;4774563;30;20109;-72
2021/10/23 06:26:59;;;;;;;8.27;1.77;;;16.50;66.80;;;;;;4774246;30;20060;-77
2021/10/23 06:29:25;;;;;;;9.27;1.42;;;16.70;66.80;;;;;;4772021;30;20052;-72
2021/10/23 06:31:51;;;;;;;8.95;1.33;;;16.80;67.10;;;;;;4774131;30;20051;-72
2021/10/23 06:34:17;;;;;;;6.47;1.38;;;16.90;67.30;;;;;;4773830;30;20093;-73
2021/10/23 06:36:43;;;;;;;6.35;1.55;;;16.90;67.00;;;;;;4773881;30;20095;-73
2021/10/23 06:39:09;;;;;;;7.13;1.42;;;17.00;67.60;;;;;;4774442;30;20127;-72
2021/10/23 06:41:35;;;;;;;8.23;1.48;;;17.10;67.80;;;;;;4788563;29;20043;-73
2021/10/23 06:44:08;;;;;;;9.65;1.67;;;16.80;63.30;;;;;;4791645;29;20152;-74
2021/10/23 06:46:37;;;;;;;8.73;1.40;;;16.80;66.90;;;;;;4774700;30;20110;-74
2021/10/23 06:49:05;;;;;;;8.32;1.58;;;16.90;67.60;;;;;;4756315;30;20060;-73
2021/10/23 06:51:31;;;;;;;9.63;1.42;;;17.00;67.70;;;;;;4767428;30;20151;-73
2021/10/23 06:53:58;;;;;;;10.18;1.20;;;17.10;67.70;;;;;;4774144;30;20048;-73
2021/10/23 06:56:24;;;;;;;7.70;1.77;;;17.20;67.70;;;;;;4774189;30;20047;-74
2021/10/23 06:58:50;;;;;;;5.07;1.40;;;17.30;67.60;;;;;;4773936;30;20472;-73
2021/10/23 07:01:17;;;;;;;5.10;1.02;;;17.30;67.40;;;;;;4773691;30;20058;-74
2021/10/23 07:03:43;;;;;;;4.90;0.98;;;17.40;67.30;;;;;;4773477;30;20052;-73
2021/10/23 07:06:09;;;;;;;4.70;1.15;;;17.50;67.00;;;;;;4773911;30;20084;-73
2021/10/23 07:08:35;;;;;;;6.82;1.58;;;17.60;66.90;;;;;;4773789;30;20373;-73
2021/10/23 07:11:01;;;;;;;3.63;1.00;;;17.70;66.70;;;;;;4773817;30;20087;-74
2021/10/23 07:13:26;;;;;;;5.38;1.00;;;17.70;66.50;;;;;;4773319;30;20097;-73
2021/10/23 07:15:52;;;;;;;6.53;0.95;;;17.80;66.30;;;;;;4776960;29;20052;-74
2021/10/23 07:18:18;;;;;;;5.68;0.93;;;17.90;66.10;;;;;;4786727;30;20082;-73
2021/10/23 07:20:44;;;;;;;4.43;0.70;;;17.90;65.90;;;;;;4790252;29;20043;-75
2021/10/23 07:23:10;;;;;;;6.75;1.00;;;18.00;65.80;;;;;;4790613;30;20105;-74
2021/10/23 07:25:35;;;;;;;5.28;0.80;;;18.10;65.70;;;;;;4792533;29;20098;-74
2021/10/23 07:28:01;;;;;;;9.23;1.45;;;18.10;65.10;;;;;;4794285;29;20055;-75
2021/10/23 07:30:27;;;;;;;8.32;0.93;;;18.10;65.40;;;;;;4789862;29;20138;-76
2021/10/23 07:32:53;;;;;;;3.10;0.90;;;18.10;65.10;;;;;;4795658;29;20054;-74
2021/10/23 07:35:18;;;;;;;5.32;0.85;;;18.10;65.10;;;;;;4791105;29;20500;-75
2021/10/23 07:37:44;;;;;;;9.15;1.42;;;18.10;65.30;;;;;;4784196;30;20495;-74
2021/10/23 07:40:12;;;;;;;4.30;0.82;;;18.10;65.00;;;;;;4790950;29;20134;-71
2021/10/23 07:42:42;;;;;;;9.63;0.95;;;18.00;64.00;;;;;;4789943;29;20496;-78
2021/10/23 07:45:10;;;;;;;5.10;0.65;;;17.40;62.20;;;;;;4791730;29;20059;-74
2021/10/23 07:47:37;;;;;;;4.70;0.90;;;16.70;64.00;;;;;;4778069;29;20052;-81
2021/10/23 07:50:06;;;;;;;5.68;0.70;;;16.30;65.80;;;;;;4772715;30;20134;-81
2021/10/23 07:52:31;;;;;;;6.00;1.30;;;16.10;67.10;;;;;;4772841;30;20117;-79
2021/10/23 07:54:57;;;;;;;5.95;1.05;;;16.10;68.20;;;;;;4767947;29;20050;-76
2021/10/23 07:57:23;;;;;;;4.85;0.90;;;16.60;68.80;;;;;;4808936;29;20533;-76
2021/10/23 07:59:48;;;;;;;5.28;1.25;;;16.80;68.50;;;;;;4809116;29;20057;-76
2021/10/23 08:02:14;;;;;;;7.00;1.20;;;17.10;68.00;;;;;;4803254;29;20377;-77
2021/10/23 08:04:40;;;;;;;4.03;0.85;;;17.40;67.40;;;;;;4793622;29;20405;-77
2021/10/23 08:07:06;;;;;;;5.38;0.90;;;17.60;66.90;;;;;;4789240;29;20048;-79
2021/10/23 08:09:33;;;;;;;8.52;1.25;;;17.80;66.70;;;;;;4773068;30;20067;-74
2021/10/23 08:11:59;;;;;;;5.93;0.73;;;18.00;66.40;;;;;;4773039;30;20095;-73
2021/10/23 08:14:26;;;;;;;5.53;1.10;;;18.10;66.20;;;;;;4765630;29;20126;-72
2021/10/23 08:16:52;;;;;;;7.13;1.13;;;18.20;66.20;;;;;;4798869;29;20047;-74
2021/10/23 08:19:19;;;;;;;4.90;0.95;;;18.20;66.10;;;;;;4791140;30;20051;-73
2021/10/23 08:21:45;;;;;;;10.50;1.20;;;18.20;66.00;;;;;;4790572;30;20059;-74
2021/10/23 08:24:12;;;;;;;12.30;1.10;;;18.20;66.20;;;;;;4774515;30;20055;-72
2021/10/23 08:26:39;;;;;;;8.50;0.80;;;18.30;66.20;;;;;;4774787;30;20059;-75
2021/10/23 08:29:05;;;;;;;7.40;1.10;;;18.30;66.10;;;;;;4790209;30;20068;-75
2021/10/23 08:31:31;;;;;;;6.07;0.98;;;18.30;66.00;;;;;;4774851;30;20050;-78
2021/10/23 08:33:58;;;;;;;7.40;0.85;;;18.30;66.00;;;;;;4779239;29;20398;-77
2021/10/23 08:36:24;;;;;;;9.48;1.17;;;18.30;66.10;;;;;;4780119;29;20059;-75
2021/10/23 08:38:56;;;;;;;7.18;0.90;;;18.30;66.10;;;;;;4787938;29;20059;-74
2021/10/23 08:41:24;;;;;;;10.02;1.17;;;18.30;66.10;;;;;;4791531;29;20074;-74
2021/10/23 08:43:51;;;;;;;7.15;0.90;;;18.30;66.00;;;;;;4790394;29;20494;-75
2021/10/23 08:46:24;;;;;;;7.13;1.10;;;18.40;66.10;;;;;;4788950;29;20051;-82
2021/10/23 08:48:55;;;;;;;6.20;0.85;;;18.30;66.10;;;;;;4774348;29;20051;-82
2021/10/23 08:51:25;;;;;;;4.85;0.75;;;18.40;66.10;;;;;;4803377;29;20054;-84
2021/10/23 08:53:52;;;;;;;4.70;0.93;;;18.40;66.00;;;;;;4742327;29;20124;-78
2021/10/23 08:56:19;;;;;;;2.92;0.90;;;18.40;65.80;;;;;;4773988;29;20086;-82
2021/10/23 08:58:45;;;;;;;6.57;1.00;;;18.50;65.50;;;;;;4773301;30;20059;-77
2021/10/23 09:01:13;;;;;;;6.47;1.15;;;18.50;65.30;;;;;;4795783;29;20111;-78
2021/10/23 09:03:46;;;;;;;7.47;1.33;;;18.50;65.20;;;;;;4773717;29;20141;-83
2021/10/23 09:06:32;;;;;;;5.00;1.25;;;18.50;65.20;;;;;;4773559;29;20527;-78
2021/10/23 09:09:06;;;;;;;5.55;0.82;;;18.50;65.10;;;;;;4791560;29;20042;-80
2021/10/23 09:11:35;;;;;;;;;;;18.50;65.10;;;;;;4776778;30;20051;-75
2021/10/23 09:14:28;;;;;;;5.68;1.25;;;18.60;65.20;;;;;;4790574;30;20260;-77
2021/10/23 09:17:08;;;;;;;8.05;1.02;;;18.60;65.10;;;;;;4766412;30;20075;-76
2021/10/23 09:19:35;;;;;;;5.47;1.15;;;18.60;65.10;;;;;;4773768;30;20074;-77
2021/10/23 09:22:04;;;;;;;4.03;1.00;;;18.60;65.30;;;;;;4789504;29;20055;-77
2021/10/23 09:24:29;;;;;;;7.75;1.40;;;18.60;65.20;;;;;;4773790;30;20074;-76
2021/10/23 09:26:55;;;;;;;5.65;1.15;;;18.60;65.30;;;;;;4802563;29;20090;-76
2021/10/23 09:29:24;;;;;;;19.58;16.55;;;18.60;65.30;;;;;;4807686;29;20055;-77
2021/10/23 09:31:55;;;;;;;5.85;2.90;;;18.60;65.50;;;;;;4790176;29;20069;-76
2021/10/23 09:34:23;;;;;;;4.53;2.78;;;18.60;64.90;;;;;;4791651;29;20090;-78
2021/10/23 09:36:55;;;;;;;8.48;3.50;;;18.60;64.50;;;;;;4794235;29;20063;-77
2021/10/23 09:39:35;;;;;;;8.18;4.00;;;18.60;64.40;;;;;;4787094;29;20130;-76
2021/10/23 09:42:13;;;;;;;5.63;2.65;;;18.60;64.60;;;;;;4788603;29;20128;-79
2021/10/23 09:45:04;;;;;;;10.60;4.15;;;18.50;64.10;;;;;;4790760;29;20047;-77
2021/10/23 09:47:36;;;;;;;9.50;3.40;;;18.30;65.40;;;;;;4806919;29;20054;-77
2021/10/23 09:50:12;;;;;;;10.52;3.83;;;18.30;66.40;;;;;;4783151;29;20052;-75
2021/10/23 09:52:59;;;;;;;10.45;3.38;;;18.40;67.60;;;;;;4771776;30;20427;-76
2021/10/23 09:55:30;;;;;;;9.10;3.85;;;18.40;67.20;;;;;;4771926;30;20059;-75
2021/10/23 09:58:15;;;;;;;7.57;4.03;;;18.40;67.50;;;;;;4771676;30;20051;-75
2021/10/23 10:00:42;;;;;;;8.10;3.80;;;18.40;67.80;;;;;;4771576;30;20060;-75
2021/10/23 10:03:09;;;;;;;6.63;3.08;;;18.30;67.90;;;;;;4772151;30;20325;-74
2021/10/23 10:05:35;;;;;;;7.30;3.78;;;18.30;68.00;;;;;;4771524;30;20099;-76
2021/10/23 10:08:06;;;;;;;8.13;3.53;;;18.30;68.10;;;;;;4756595;30;20064;-76
2021/10/23 10:10:35;;;;;;;10.65;3.85;;;18.30;68.40;;;;;;4757294;30;20063;-75
2021/10/23 10:13:02;;;;;;;8.45;3.25;;;18.30;68.50;;;;;;4774531;30;20128;-74
2021/10/23 10:15:30;;;;;;;8.27;3.17;;;18.30;68.50;;;;;;4775064;30;20064;-75
2021/10/23 10:18:00;;;;;;;7.95;3.25;;;18.30;68.40;;;;;;4774599;30;20154;-75
2021/10/23 10:20:27;;;;;;;6.18;2.97;;;18.20;68.40;;;;;;4774769;30;20117;-75
2021/10/23 10:22:53;;;;;;;6.47;2.70;;;18.20;68.60;;;;;;4774804;30;20062;-76
2021/10/23 10:25:24;;;;;;;7.18;2.97;;;18.20;68.70;;;;;;4774022;30;20479;-75
2021/10/23 10:27:52;;;;;;;7.63;2.97;;;18.20;68.80;;;;;;4774491;30;20059;-74
2021/10/23 10:30:35;;;;;;;7.35;2.40;;;18.10;68.80;;;;;;4781446;30;20099;-78
2021/10/23 10:33:22;;;;;;;5.53;2.47;;;18.10;68.80;;;;;;4792416;29;20136;-77
2021/10/23 10:36:16;;;;;;;6.60;2.33;;;18.10;68.80;;;;;;4792253;30;20363;-77
2021/10/23 10:39:05;;;;;;;4.43;2.08;;;18.10;68.90;;;;;;4792296;30;20066;-77
2021/10/23 10:44:12;;;;;;;6.47;2.22;;;18.00;69.00;;;;;;4792209;30;20069;-73
2021/10/23 10:47:07;;;;;;;7.95;2.22;;;18.10;68.60;;;;;;4779677;29;20054;-75
2021/10/23 10:49:53;;;;;;;7.90;2.10;;;18.10;68.40;;;;;;4776603;29;20055;-78
2021/10/23 10:52:40;;;;;;;9.43;2.30;;;18.10;68.30;;;;;;4774015;29;20133;-76
2021/10/23 10:55:11;;;;;;;17.33;2.40;;;18.00;68.00;;;;;;4765824;30;20067;-76
2021/10/23 10:57:57;;;;;;;8.07;2.50;;;18.00;68.00;;;;;;4792072;30;20059;-77
2021/10/23 11:00:44;;;;;;;5.30;1.67;;;18.00;67.80;;;;;;4780269;29;20086;-76
2021/10/23 11:03:32;;;;;;;6.53;1.75;;;18.10;67.70;;;;;;4750817;30;20151;-74
2021/10/23 11:06:36;;;;;;;8.75;2.00;;;18.20;67.30;;;;;;4760937;30;20056;-75
2021/10/23 11:09:14;;;;;;;10.38;2.00;;;18.20;67.20;;;;;;4756240;30;20139;-75
2021/10/23 11:14:24;;;;;;;9.52;1.83;;;18.30;68.00;;;;;;4774731;30;20059;-73
2021/10/23 11:16:56;;;;;;;11.40;1.90;;;18.30;67.70;;;;;;4773256;30;20063;-74
2021/10/23 11:19:41;;;;;;;11.93;2.35;;;18.30;67.20;;;;;;4773481;30;20064;-73
2021/10/23 11:22:12;;;;;;;11.25;1.67;;;18.30;66.80;;;;;;4773015;30;20109;-74
2021/10/23 11:24:42;;;;;;;7.60;1.42;;;18.40;66.90;;;;;;4757636;30;20047;-73
2021/10/23 11:27:29;;;;;;;7.75;2.08;;;18.40;66.80;;;;;;4757553;30;20141;-74
2021/10/23 11:30:13;;;;;;;10.82;1.95;;;18.40;66.60;;;;;;4773207;30;20055;-74
2021/10/23 11:32:44;;;;;;;5.80;1.60;;;18.40;66.50;;;;;;4782395;30;20051;-74
2021/10/23 11:35:10;;;;;;;6.28;1.52;;;18.50;66.70;;;;;;4785344;29;20047;-73
2021/10/23 11:37:36;;;;;;;7.90;1.83;;;18.60;66.70;;;;;;4782022;30;20340;-73
2021/10/23 11:40:06;;;;;;;9.30;1.40;;;18.60;66.50;;;;;;4791004;29;20078;-73
2021/10/23 11:42:49;;;;;;;4.40;1.30;;;18.70;66.40;;;;;;4790242;30;20506;-75
2021/10/23 11:45:27;;;;;;;6.90;1.00;;;18.80;66.40;;;;;;4790668;30;20054;-73
2021/10/23 11:48:01;;;;;;;4.75;1.30;;;18.80;66.20;;;;;;4790544;30;20120;-75
2021/10/23 11:50:30;;;;;;;5.28;1.13;;;18.90;66.00;;;;;;4794632;29;20062;-74
2021/10/23 11:53:00;;;;;;;8.65;1.63;;;18.90;66.00;;;;;;4775291;30;20060;-74
2021/10/23 11:55:36;;;;;;;6.82;1.67;;;18.90;65.90;;;;;;4790825;30;20047;-75
2021/10/23 11:58:13;;;;;;;7.95;1.25;;;19.00;65.90;;;;;;4790807;29;20428;-72
2021/10/23 12:00:48;;;;;;;6.05;1.15;;;19.00;65.70;;;;;;4808861;29;20046;-74
2021/10/23 12:03:16;;;;;;;6.22;1.40;;;19.00;65.70;;;;;;4794358;29;20097;-74
2021/10/23 12:05:50;;;;;;;5.18;0.88;;;19.10;65.70;;;;;;4790553;30;20059;-73
2021/10/23 12:08:21;;;;;;;4.03;1.00;;;19.10;65.20;;;;;;4785636;29;20066;-74
2021/10/23 12:11:05;;;;;;;2.00;0.65;;;19.10;65.30;;;;;;4790750;30;20067;-73
2021/10/23 12:13:54;;;;;;;2.90;0.95;;;19.10;65.10;;;;;;4790447;30;20057;-73
2021/10/23 12:16:30;;;;;;;6.00;0.90;;;19.10;65.20;;;;;;4803120;29;20055;-73
2021/10/23 12:19:10;;;;;;;7.38;0.95;;;19.10;65.20;;;;;;4808635;29;20054;-73
2021/10/23 12:21:42;;;;;;;4.38;0.98;;;19.10;65.20;;;;;;4801127;29;20119;-73
2021/10/23 12:24:17;;;;;;;4.43;1.00;;;19.10;65.10;;;;;;4791014;30;20416;-73
2021/10/23 12:26:58;;;;;;;2.78;0.70;;;19.20;65.10;;;;;;4790560;29;20062;-75
2021/10/23 12:29:35;;;;;;;5.25;0.80;;;19.10;65.10;;;;;;4808189;29;20058;-74
2021/10/23 12:32:26;;;;;;;4.88;1.25;;;19.10;65.10;;;;;;4792478;29;20066;-74
2021/10/23 12:34:53;;;;;;;3.65;0.73;;;19.10;65.10;;;;;;4805334;29;20055;-73
2021/10/23 12:37:28;;;;;;;2.28;0.80;;;19.10;65.20;;;;;;4803667;29;20051;-74
2021/10/23 12:40:12;;;;;;;3.13;0.73;;;19.10;65.10;;;;;;4790296;30;20527;-75
2021/10/23 12:42:45;;;;;;;3.65;0.98;;;19.10;65.00;;;;;;4780526;29;20087;-74
2021/10/23 12:45:14;;;;;;;1.67;0.63;;;19.10;65.10;;;;;;4807503;29;20111;-74
2021/10/23 12:47:40;;;;;;;3.70;0.75;;;19.10;65.10;;;;;;4807344;29;20101;-75
2021/10/23 12:50:08;;;;;;;3.67;0.88;;;19.10;65.10;;;;;;4808131;29;20055;-73
2021/10/23 12:52:35;;;;;;;3.05;0.68;;;19.10;65.10;;;;;;4793948;29;20126;-74
2021/10/23 12:55:02;;;;;;;2.30;0.70;;;19.10;65.00;;;;;;4774243;29;20062;-75
2021/10/23 12:57:29;;;;;;;2.65;0.47;;;19.10;65.00;;;;;;4790068;29;20054;-73
2021/10/23 12:59:56;;;;;;;3.72;0.70;;;19.10;65.10;;;;;;4789848;29;20055;-74
2021/10/23 13:02:22;;;;;;;2.45;0.90;;;19.10;65.00;;;;;;4790015;30;20092;-75
2021/10/23 13:04:48;;;;;;;1.45;0.60;;;19.00;65.60;;;;;;4789972;29;20083;-74
2021/10/23 13:07:15;;;;;;;2.20;0.70;;;19.10;65.10;;;;;;4790772;29;20051;-74
2021/10/23 13:09:40;;;;;;;4.57;0.77;;;19.00;65.00;;;;;;4790034;30;20051;-73
2021/10/23 13:12:06;;;;;;;3.88;1.00;;;19.00;65.00;;;;;;4789476;29;20351;-73
2021/10/23 13:14:32;;;;;;;2.97;0.50;;;19.10;65.00;;;;;;4789928;30;20051;-73
2021/10/23 13:16:57;;;;;;;2.47;0.57;;;19.00;64.90;;;;;;4789644;29;20044;-74
2021/10/23 13:19:23;;;;;;;2.30;0.77;;;19.00;65.00;;;;;;4790253;30;20352;-74
2021/10/23 13:21:49;;;;;;;2.60;0.77;;;19.00;65.00;;;;;;4795322;29;20124;-75
2021/10/23 13:24:14;;;;;;;3.47;1.02;;;19.10;64.90;;;;;;4807378;29;20047;-73
2021/10/23 13:26:40;;;;;;;2.78;0.85;;;19.10;64.90;;;;;;4801516;29;20039;-74
2021/10/23 13:29:06;;;;;;;4.22;0.80;;;19.10;64.90;;;;;;4789547;29;20056;-74
2021/10/23 13:31:31;;;;;;;3.08;0.73;;;19.00;64.90;;;;;;4774247;30;20093;-74
2021/10/23 13:33:58;;;;;;;3.67;0.88;;;19.00;64.80;;;;;;4802324;29;20054;-73
2021/10/23 13:36:24;;;;;;;2.30;0.80;;;19.10;64.90;;;;;;4807745;29;20443;-75
2021/10/23 13:38:50;;;;;;;3.80;0.82;;;19.10;64.80;;;;;;4795516;29;20051;-75
2021/10/23 13:41:16;;;;;;;3.00;0.60;;;19.10;64.80;;;;;;4789452;30;20047;-75
2021/10/23 13:43:42;;;;;;;2.22;0.55;;;19.10;64.70;;;;;;4799132;29;20078;-73
2021/10/23 13:46:07;;;;;;;2.95;0.70;;;19.10;64.70;;;;;;4810461;29;20082;-74
2021/10/23 13:48:33;;;;;;;2.38;0.63;;;19.10;65.40;;;;;;4811432;29;20051;-75
2021/10/23 13:51:00;;;;;;;3.00;0.80;;;19.10;64.80;;;;;;4810803;29;20126;-74
2021/10/23 13:53:25;;;;;;;2.10;0.45;;;19.10;64.80;;;;;;4796992;29;20148;-74
2021/10/23 13:55:51;;;;;;;2.47;0.65;;;19.10;64.70;;;;;;4792698;30;20100;-75
2021/10/23 13:58:17;;;;;;;4.38;0.82;;;19.10;64.70;;;;;;4798186;29;20145;-75
2021/10/23 14:00:44;;;;;;;2.50;0.55;;;19.10;64.70;;;;;;4810783;29;20123;-73
2021/10/23 14:03:10;;;;;;;2.97;0.88;;;19.10;64.80;;;;;;4791921;29;20051;-73
2021/10/23 14:05:36;;;;;;;2.20;0.52;;;19.10;64.80;;;;;;4809168;29;20077;-74
2021/10/23 14:08:03;;;;;;;3.15;0.43;;;19.10;64.80;;;;;;4776871;30;20059;-74
2021/10/23 14:10:30;;;;;;;3.30;0.85;;;19.10;64.90;;;;;;4796952;29;20968;-74
2021/10/23 14:12:55;;;;;;;2.97;0.63;;;19.10;64.90;;;;;;4781267;29;20059;-73
2021/10/23 14:15:22;;;;;;;3.22;0.63;;;19.10;64.90;;;;;;4786739;29;20047;-73
2021/10/23 14:17:48;;;;;;;4.47;1.00;;;19.10;64.90;;;;;;4780067;29;20077;-71
2021/10/23 14:20:14;;;;;;;9.27;1.10;;;19.10;64.90;;;;;;4792605;30;20519;-73
2021/10/23 14:22:41;;;;;;;5.72;1.42;;;19.10;65.10;;;;;;4801527;29;20090;-72
2021/10/23 14:25:09;;;;;;;5.97;1.17;;;19.00;65.10;;;;;;4791669;29;20051;-73
2021/10/23 14:30:17;;;;;;;7.00;0.80;;;19.00;65.60;;;;;;4775598;29;20063;-74
2021/10/23 14:32:43;;;;;;;8.52;1.25;;;19.00;65.60;;;;;;4792223;30;20073;-75
2021/10/23 14:35:10;;;;;;;15.20;1.30;;;19.00;65.80;;;;;;4800877;29;20372;-72
2021/10/23 14:37:38;;;;;;;5.13;0.90;;;19.00;65.90;;;;;;4793775;29;20132;-73
2021/10/23 14:40:06;;;;;;;6.03;0.73;;;19.00;66.00;;;;;;4791894;30;20050;-72
2021/10/23 14:42:32;;;;;;;6.13;1.13;;;19.00;66.00;;;;;;4791842;29;20055;-74
2021/10/23 14:44:58;;;;;;;8.43;1.60;;;19.00;65.90;;;;;;4791834;30;20047;-73
2021/10/23 14:47:24;;;;;;;5.30;1.00;;;19.00;65.90;;;;;;4791999;30;20062;-71
2021/10/23 14:49:50;;;;;;;10.15;0.93;;;19.00;66.10;;;;;;4791896;29;20142;-72
2021/10/23 14:52:16;;;;;;;2.85;0.75;;;19.00;66.30;;;;;;4787065;30;20086;-72
2021/10/23 14:54:43;;;;;;;4.65;1.08;;;18.90;66.30;;;;;;4775496;30;20052;-78
2021/10/23 14:57:09;;;;;;;5.00;0.80;;;18.90;66.00;;;;;;4742816;30;20059;-76
2021/10/23 14:59:35;;;;;;;4.80;0.65;;;19.00;65.80;;;;;;4748993;30;20197;-73
2021/10/23 15:02:01;;;;;;;5.95;1.02;;;19.00;65.80;;;;;;4756110;30;20590;-73
2021/10/23 15:04:27;;;;;;;4.15;1.08;;;18.90;65.90;;;;;;4756014;30;20053;-73
2021/10/23 15:06:53;;;;;;;5.90;0.70;;;18.90;65.80;;;;;;4754233;30;20057;-72
2021/10/23 15:09:20;;;;;;;4.40;0.73;;;19.00;65.80;;;;;;4791400;29;20127;-74
2021/10/23 15:11:46;;;;;;;7.93;0.88;;;18.90;65.80;;;;;;4781970;30;20051;-74
2021/10/23 15:14:12;;;;;;;8.30;1.10;;;19.00;66.00;;;;;;4757902;30;20474;-74
2021/10/23 15:16:38;;;;;;;5.25;1.20;;;19.00;66.10;;;;;;4773714;30;20044;-74
2021/10/23 15:19:04;;;;;;;7.05;0.82;;;19.00;66.20;;;;;;4766158;30;20059;-73
2021/10/23 15:21:30;;;;;;;2.55;0.98;;;19.00;66.30;;;;;;4789809;30;20059;-74
2021/10/23 15:23:55;;;;;;;5.88;1.30;;;19.00;66.40;;;;;;4773264;30;20047;-73
2021/10/23 15:26:21;;;;;;;4.35;0.82;;;19.00;66.50;;;;;;4773103;30;20116;-73
2021/10/23 15:28:49;;;;;;;6.72;1.40;;;19.00;66.70;;;;;;4773277;30;20052;-73
2021/10/23 15:31:20;;;;;;;5.00;1.10;;;19.00;66.80;;;;;;4771038;30;20059;-73
2021/10/23 15:33:46;;;;;;;10.30;2.42;;;19.00;67.00;;;;;;4772694;30;20091;-71
2021/10/23 15:36:11;;;;;;;14.50;1.92;;;19.00;69.70;;;;;;4773179;30;20087;-73
2021/10/23 15:38:49;;;;;;;11.68;2.72;;;19.00;69.80;;;;;;4757626;30;20064;-72
2021/10/23 15:43:48;;;;;;;11.68;2.55;;;19.00;69.50;;;;;;4772320;30;20134;-77
2021/10/23 15:46:14;;;;;;;15.77;2.72;;;19.00;69.70;;;;;;4755064;30;20056;-77
2021/10/23 15:48:41;;;;;;;13.43;2.97;;;19.00;69.70;;;;;;4765967;30;20048;-77
2021/10/23 15:51:07;;;;;;;12.35;1.75;;;19.00;69.70;;;;;;4781099;30;20132;-77
2021/10/23 15:53:34;;;;;;;18.80;2.88;;;18.60;68.20;;;;;;4791008;30;20055;-75
2021/10/23 15:56:00;;;;;;;13.95;2.63;;;18.70;70.00;;;;;;4782729;29;20134;-77
2021/10/23 15:58:27;;;;;;;13.57;2.60;;;18.80;69.60;;;;;;4772989;30;20052;-79
2021/10/23 16:00:53;;;;;;;7.95;2.38;;;18.80;69.10;;;;;;4772826;30;20058;-79
2021/10/23 16:03:18;;;;;;;11.52;2.35;;;18.90;69.00;;;;;;4788488;29;20051;-78
2021/10/23 16:05:44;;;;;;;11.70;1.85;;;18.90;68.90;;;;;;4790665;30;20047;-78
2021/10/23 16:08:10;;;;;;;12.70;2.20;;;18.90;69.10;;;;;;4783564;29;20152;-77
2021/10/23 16:10:38;;;;;;;7.25;2.00;;;18.90;69.30;;;;;;4772773;30;20056;-77
2021/10/23 16:13:06;;;;;;;11.35;2.08;;;18.90;69.90;;;;;;4772593;30;20055;-78
2021/10/23 16:15:32;;;;;;;9.40;1.88;;;18.90;69.40;;;;;;4772278;30;20062;-77
2021/10/23 16:17:59;;;;;;;5.18;1.73;;;18.90;69.50;;;;;;4772766;30;20043;-78
2021/10/23 16:20:26;;;;;;;7.30;1.80;;;19.00;69.60;;;;;;4772690;30;20052;-77
2021/10/23 16:22:56;;;;;;;4.90;1.63;;;18.90;69.50;;;;;;4772664;30;20056;-78
2021/10/23 16:25:22;;;;;;;7.50;1.52;;;18.90;69.60;;;;;;4772004;30;20062;-78
2021/10/23 16:27:50;;;;;;;6.80;1.65;;;19.00;69.60;;;;;;4787425;29;20122;-75
2021/10/23 16:30:16;;;;;;;12.68;1.88;;;19.00;69.20;;;;;;4808216;29;20333;-78
2021/10/23 16:32:43;;;;;;;13.13;2.05;;;18.90;69.20;;;;;;4792128;29;20065;-79
2021/10/23 16:35:09;;;;;;;9.05;2.38;;;19.00;69.70;;;;;;4807959;29;20460;-78
2021/10/23 16:37:36;;;;;;;11.57;1.92;;;18.90;69.80;;;;;;4808198;29;20086;-77
2021/10/23 16:40:03;;;;;;;11.15;2.03;;;18.90;69.80;;;;;;4808304;29;20055;-77
2021/10/23 16:42:37;;;;;;;28.90;2.75;;;18.90;69.70;;;;;;4792163;29;20140;-78
2021/10/23 16:45:05;;;;;;;19.70;3.45;;;19.00;69.80;;;;;;4807317;29;20367;-78
2021/10/23 16:47:32;;;;;;;33.08;5.25;;;18.90;69.50;;;;;;4808383;29;20111;-79
2021/10/23 16:49:58;;;;;;;41.97;5.80;;;18.90;69.20;;;;;;4791965;29;20436;-78
2021/10/23 16:52:26;;;;;;;43.42;4.65;;;18.90;69.20;;;;;;4808344;29;20118;-77
2021/10/23 16:54:52;;;;;;;40.88;4.93;;;18.90;68.90;;;;;;4807604;29;20119;-77
2021/10/23 16:57:18;;;;;;;34.08;4.47;;;18.90;69.10;;;;;;4806350;29;20405;-77
2021/10/23 16:59:44;;;;;;;33.75;3.95;;;18.90;69.10;;;;;;4807761;29;20103;-77
2021/10/23 17:02:10;;;;;;;24.40;3.42;;;18.90;69.20;;;;;;4807980;29;20062;-81
2021/10/23 17:04:35;;;;;;;28.88;3.90;;;18.90;69.20;;;;;;4791867;29;20458;-77
2021/10/23 17:07:02;;;;;;;24.85;3.90;;;19.00;69.20;;;;;;4808142;29;20123;-73
2021/10/23 17:09:28;;;;;;;21.83;3.42;;;18.90;69.20;;;;;;4805389;29;20436;-74
2021/10/23 17:11:53;;;;;;;20.92;4.40;;;19.00;68.90;;;;;;4791924;29;20125;-76
2021/10/23 17:14:24;;;;;;;23.60;3.17;;;18.90;68.60;;;;;;4807766;29;20078;-75
2021/10/23 17:16:50;;;;;;;24.77;3.55;;;18.90;68.30;;;;;;4776293;30;20070;-76
2021/10/23 17:19:16;;;;;;;16.85;2.60;;;18.90;68.30;;;;;;4792049;29;20063;-76
2021/10/23 17:21:43;;;;;;;16.50;2.80;;;18.90;68.20;;;;;;4793308;30;20059;-76
2021/10/23 17:24:08;;;;;;;17.48;3.22;;;18.90;68.40;;;;;;4793153;30;20443;-76
2021/10/23 17:26:37;;;;;;;17.55;3.78;;;18.90;68.60;;;;;;4793362;29;20055;-76
2021/10/23 17:29:10;;;;;;;20.38;3.40;;;18.80;68.30;;;;;;4808866;29;20062;-76
2021/10/23 17:31:36;;;;;;;10.13;2.63;;;18.80;68.50;;;;;;4800928;29;20047;-79
2021/10/23 17:34:03;;;;;;;15.30;2.72;;;18.80;68.70;;;;;;4793246;30;20047;-80
2021/10/23 17:36:29;;;;;;;19.63;3.63;;;18.70;68.70;;;;;;4777537;30;20134;-80
2021/10/23 17:38:56;;;;;;;19.85;3.47;;;18.70;68.60;;;;;;4777417;30;20543;-77
2021/10/23 17:41:21;;;;;;;19.23;2.72;;;18.70;68.70;;;;;;4793174;30;20333;-77
2021/10/23 17:43:47;;;;;;;12.20;2.75;;;18.70;69.10;;;;;;4784826;29;20066;-79
2021/10/23 17:46:13;;;;;;;13.77;2.92;;;18.70;69.20;;;;;;4811264;29;20047;-75
2021/10/23 17:48:39;;;;;;;17.65;3.60;;;18.60;69.00;;;;;;4795078;29;20485;-76
2021/10/23 17:51:05;;;;;;;17.38;3.25;;;18.60;68.00;;;;;;4810693;29;20069;-76
2021/10/23 17:53:31;;;;;;;21.85;3.40;;;18.60;69.10;;;;;;4811682;29;20077;-76
2021/10/23 17:55:57;;;;;;;12.85;2.55;;;18.60;69.50;;;;;;4780265;29;20352;-74
2021/10/23 17:58:22;;;;;;;20.33;2.35;;;18.50;69.50;;;;;;4796830;29;20052;-75
2021/10/23 18:00:50;;;;;;;16.73;2.72;;;18.50;69.60;;;;;;4793044;30;20139;-77
2021/10/23 18:03:17;;;;;;;12.35;2.25;;;18.50;69.70;;;;;;4805693;29;20122;-76
2021/10/23 18:05:47;;;;;;;12.30;2.33;;;18.50;69.70;;;;;;4810667;29;20055;-75
2021/10/23 18:08:15;;;;;;;13.05;2.33;;;18.50;69.70;;;;;;4810751;29;20046;-76
2021/10/23 18:10:41;;;;;;;10.30;2.60;;;18.50;69.80;;;;;;4811100;29;20365;-76
2021/10/23 18:13:09;;;;;;;14.30;2.78;;;18.50;69.70;;;;;;4810275;29;20145;-74
2021/10/23 18:15:44;;;;;;;11.68;2.28;;;18.50;69.80;;;;;;4805032;29;20074;-77
2021/10/23 18:18:17;;;;;;;12.15;2.90;;;18.50;69.60;;;;;;4776774;30;20192;-77
2021/10/23 18:20:45;;;;;;;11.63;2.60;;;18.40;69.60;;;;;;4770810;30;20060;-76
2021/10/23 18:23:12;;;;;;;10.45;2.63;;;18.40;69.70;;;;;;4759184;30;20214;-76
2021/10/23 18:25:38;;;;;;;17.02;3.30;;;18.40;68.90;;;;;;4774571;30;20095;-76
2021/10/23 18:28:04;;;;;;;11.80;4.10;;;18.10;68.60;;;;;;4774808;30;20048;-76
2021/10/23 18:30:31;;;;;;;13.63;3.97;;;17.90;68.80;;;;;;4779059;29;20147;-74
2021/10/23 18:32:58;;;;;;;12.07;3.80;;;17.90;69.10;;;;;;4792471;30;20142;-76
2021/10/23 18:35:28;;;;;;;15.07;4.38;;;17.70;69.00;;;;;;4776527;30;20062;-76
2021/10/23 18:37:58;;;;;;;10.63;4.57;;;17.70;68.90;;;;;;4792710;30;20047;-76
2021/10/23 18:40:26;;;;;;;13.63;4.65;;;17.70;68.60;;;;;;4792243;30;20078;-76
2021/10/23 18:42:51;;;;;;;8.20;4.00;;;17.60;68.60;;;;;;4792325;30;20059;-76
2021/10/23 18:45:22;;;;;;;10.38;3.50;;;17.60;68.80;;;;;;4776158;30;20054;-74
2021/10/23 18:47:49;;;;;;;8.38;3.17;;;17.60;69.60;;;;;;4776382;30;20055;-73
2021/10/23 18:50:16;;;;;;;9.32;3.03;;;17.70;69.90;;;;;;4786691;29;20115;-74